M I D A S
Marine Information and Data Acquisition System
Tripno 2172 of the Zeeleeuw from 2011-08-26 05:31:22 to 2011-08-26 13:25:08
Back to CruiseResearch ActivitiesStationsMapUnderway DataData graphs

EquipmentUnitsComment
TimeDGPSUTC
LatitudeDGPSDM.mWGS84
LongitudeDGPSDM.mWGS84
HeadingGyrodeg 
SOGDGPSknotsSpeed over ground
COGDGPSdegCourse over ground
DepthEcho soundermeters200 kHz
Missing or incorrect values are displayed as -999
Navigation data collected by the RV Zeeleeuw from 2011-08-26 05:18:30 to 2011-08-26 13:36:39
Time Latitude Longitude Heading SOG COG Depth
2011-08-26 05:19:35 51°13.635 2°56.018 127.7 -999 52 7.1
2011-08-26 05:20:35 51°13.635 2°56.018 122 0.1 208 7
2011-08-26 05:21:35 51°13.634 2°56.018 110.2 0.1 198 7
2011-08-26 05:22:38 51°13.646 2°55.962 109 4.8 290 -999
2011-08-26 05:23:39 51°13.67 2°55.845 113.1 4.2 291 -999
2011-08-26 05:24:39 51°13.718 2°55.748 142.6 4.9 321 -999
2011-08-26 05:25:39 51°13.789 2°55.679 156.2 5 335 -999
2011-08-26 05:26:39 51°13.865 2°55.636 164.8 4.6 344 -999
2011-08-26 05:27:39 51°13.93 2°55.626 195.8 3.2 8 -999
2011-08-26 05:28:38 51°13.961 2°55.638 223.5 0.5 331 11.7
2011-08-26 05:29:36 51°13.968 2°55.585 292.8 3.3 300 11.3
2011-08-26 05:30:35 51°14.041 2°55.505 330 7.9 330 11.1
2011-08-26 05:31:36 51°14.176 2°55.378 330.4 9.8 329 10.9
2011-08-26 05:32:37 51°14.326 2°55.232 328.1 11 328 -999
2011-08-26 05:33:37 51°14.482 2°55.055 321.5 12.2 319 11.2
2011-08-26 05:34:36 51°14.628 2°54.821 323.1 12.8 320 11.3
2011-08-26 05:35:36 51°14.8 2°54.622 335.2 12.6 331 11.4
2011-08-26 05:36:36 51°14.979 2°54.445 331.5 12.5 324 11.5
2011-08-26 05:37:36 51°15.13 2°54.213 318 12.6 314 10.8
2011-08-26 05:38:36 51°15.287 2°53.998 327.1 12.5 320 9.8
2011-08-26 05:39:36 51°15.445 2°53.782 329 12.5 325 10
2011-08-26 05:40:36 51°15.619 2°53.596 332.7 12.6 326 11
2011-08-26 05:41:36 51°15.787 2°53.401 335.3 12.4 330 11.9
2011-08-26 05:42:36 51°15.974 2°53.26 344.8 12.3 339 12.2
2011-08-26 05:43:36 51°16.163 2°53.135 340.2 12.4 334 12
2011-08-26 05:44:36 51°16.349 2°52.994 343.1 12.3 339 12.2
2011-08-26 05:45:36 51°16.54 2°52.881 344.5 12.2 339 11.6
2011-08-26 05:46:36 51°16.728 2°52.759 339.8 12.2 335 10.5
2011-08-26 05:47:36 51°16.914 2°52.646 346.5 12 342 9.8
2011-08-26 05:48:36 51°17.103 2°52.545 347.3 11.8 343 9.6
2011-08-26 05:49:36 51°17.296 2°52.493 358.8 11.8 354 10.3
2011-08-26 05:50:36 51°17.491 2°52.456 357.3 11.9 352 10.4
2011-08-26 05:51:36 51°17.685 2°52.459 11 11.6 8 10.4
2011-08-26 05:52:36 51°17.875 2°52.502 11.1 11.6 9 10.3
2011-08-26 05:53:36 51°18.059 2°52.581 23.3 11.4 21 10.7
2011-08-26 05:54:36 51°18.226 2°52.726 34.6 11.4 32 10.9
2011-08-26 05:55:36 51°18.386 2°52.888 37.2 11.3 36 11.3
2011-08-26 05:56:36 51°18.533 2°53.076 39.9 11.3 38 11.4
2011-08-26 05:57:36 51°18.683 2°53.258 39.6 11.3 37 11.7
2011-08-26 05:58:36 51°18.842 2°53.419 33.6 11.3 31 11.8
2011-08-26 05:59:36 51°18.996 2°53.596 40.6 11.3 39 12
2011-08-26 06:00:36 51°19.144 2°53.781 36.4 11.4 32 12.2
2011-08-26 06:01:36 51°19.299 2°53.953 40.7 11.3 39 12.3
2011-08-26 06:02:36 51°19.444 2°54.144 42.2 11.3 40 12.4
2011-08-26 06:03:36 51°19.593 2°54.326 38.4 11.3 34 12.6
2011-08-26 06:04:36 51°19.75 2°54.489 36.2 11.3 32 13
2011-08-26 06:05:36 51°19.905 2°54.66 38.2 11.3 37 13.4
2011-08-26 06:06:36 51°20.051 2°54.852 40.7 11.3 39 13.4
2011-08-26 06:07:36 51°20.197 2°55.045 41.3 11.4 41 13.5
2011-08-26 06:08:36 51°20.353 2°55.22 39 11.4 37 13.7
2011-08-26 06:09:36 51°20.505 2°55.4 36 11.4 30 13.7
2011-08-26 06:10:36 51°20.657 2°55.579 42.3 11.4 38 14.3
2011-08-26 06:11:36 51°20.805 2°55.765 38.6 11.3 33 14.4
2011-08-26 06:12:36 51°20.963 2°55.929 40 11.3 37 14.6
2011-08-26 06:13:36 51°21.112 2°56.11 39.2 11.2 34 14.9
2011-08-26 06:14:36 51°21.269 2°56.275 39.5 11.2 37 15.4
2011-08-26 06:15:36 51°21.412 2°56.464 42.9 11.2 38 15.6
2011-08-26 06:16:36 51°21.562 2°56.64 42 11.2 39 16
2011-08-26 06:17:36 51°21.708 2°56.826 41 11.2 36 16.5
2011-08-26 06:18:36 51°21.861 2°56.999 41.7 11.2 37 16.7
2011-08-26 06:19:36 51°22.009 2°57.178 40 11.3 35 17.1
2011-08-26 06:20:36 51°22.157 2°57.361 43.7 11.2 39 17.3
2011-08-26 06:21:36 51°22.302 2°57.546 39.5 11.2 35 17.6
2011-08-26 06:22:36 51°22.456 2°57.715 38.9 11.2 36 17.9
2011-08-26 06:23:36 51°22.602 2°57.902 44 11.2 41 17.8
2011-08-26 06:24:36 51°22.75 2°58.083 39.4 11.3 34 18.1
2011-08-26 06:25:36 51°22.901 2°58.26 41.8 11.2 40 18.3
2011-08-26 06:26:36 51°23.044 2°58.454 43 11.2 39 18.7
2011-08-26 06:27:36 51°23.197 2°58.625 38.7 11.3 35 18.9
2011-08-26 06:28:36 51°23.342 2°58.817 44 11.3 41 18.9
2011-08-26 06:29:36 51°23.493 2°58.996 39.2 11.3 36 17.6
2011-08-26 06:30:36 51°23.644 2°59.17 39.8 11.2 36 17.5
2011-08-26 06:31:36 51°23.787 2°59.364 43.3 11.4 41 17.3
2011-08-26 06:32:36 51°23.936 2°59.55 39 11.4 37 16.9
2011-08-26 06:33:36 51°24.081 2°59.747 46.3 11.4 46 16.6
2011-08-26 06:34:36 51°24.214 2°59.965 45 11.6 44 16.3
2011-08-26 06:35:36 51°24.347 3°0.187 48.4 11.6 47 16
2011-08-26 06:36:36 51°24.489 3°0.395 42 11.5 40 15.8
2011-08-26 06:37:36 51°24.628 3°0.606 45.9 11.7 43 20
2011-08-26 06:38:36 51°24.764 3°0.831 52.1 11.8 52 19.5
2011-08-26 06:39:36 51°24.899 3°1.054 42.1 11.7 38 17.1
2011-08-26 06:40:36 51°25.056 3°1.241 40.7 11.7 39 14.5
2011-08-26 06:41:36 51°25.202 3°1.446 44.2 11.6 42 13.7
2011-08-26 06:42:36 51°25.353 3°1.632 39 11.5 37 13
2011-08-26 06:43:36 51°25.497 3°1.829 43.6 11.3 42 12.4
2011-08-26 06:44:36 51°25.643 3°2.014 41.6 11.2 42 11.5
2011-08-26 06:45:36 51°25.783 3°2.206 39.1 11 37 10.8
2011-08-26 06:46:36 51°25.922 3°2.4 43.6 11.1 43 11.2
2011-08-26 06:47:36 51°26.064 3°2.585 41.8 11 42 11
2011-08-26 06:48:36 51°26.202 3°2.778 38.2 11 35 11.9
2011-08-26 06:49:36 51°26.357 3°2.937 34.8 11.1 33 11.9
2011-08-26 06:50:36 51°26.511 3°3.097 35.6 11.1 33 12.4
2011-08-26 06:51:36 51°26.662 3°3.268 39.6 11.1 38 12.8
2011-08-26 06:52:36 51°26.803 3°3.459 42.9 11.2 43 13
2011-08-26 06:53:36 51°26.93 3°3.678 45.7 11.2 44 13.1
2011-08-26 06:54:36 51°27.065 3°3.887 47.2 11.3 48 12.9
2011-08-26 06:55:36 51°27.192 3°4.111 46.7 11.4 47 13.3
2011-08-26 06:56:36 51°27.329 3°4.325 46.4 11.6 47 13
2011-08-26 06:57:36 51°27.458 3°4.554 47.2 11.6 47 13.3
2011-08-26 06:58:36 51°27.594 3°4.77 41.5 11.5 41 13.3
2011-08-26 06:59:36 51°27.735 3°4.979 45.4 11.6 46 14.6
2011-08-26 07:00:36 51°27.868 3°5.201 42.9 11.5 42 14.9
2011-08-26 07:01:36 51°28.007 3°5.414 46.2 11.6 48 15
2011-08-26 07:02:36 51°28.137 3°5.642 45.3 11.6 45 15.3
2011-08-26 07:03:36 51°28.276 3°5.856 45.4 11.6 46 15.7
2011-08-26 07:04:36 51°28.405 3°6.087 45.7 11.6 46 16.5
2011-08-26 07:05:36 51°28.545 3°6.302 46.4 11.7 47 17
2011-08-26 07:06:36 51°28.694 3°6.496 32.4 11.6 31 17.1
2011-08-26 07:07:36 51°28.856 3°6.672 37.1 11.8 37 17
2011-08-26 07:08:36 51°29.019 3°6.843 32.2 11.7 31 17.2
2011-08-26 07:09:36 51°29.2 3°6.951 19 11.7 17 17.9
2011-08-26 07:10:36 51°29.383 3°7.057 21.8 11.7 20 18.3
2011-08-26 07:11:36 51°29.514 3°7.122 18.1 5.5 12 18.9
2011-08-26 07:12:36 51°29.579 3°7.103 349.2 3.5 336 19.4
2011-08-26 07:13:36 51°29.618 3°7.072 358.4 1.8 330 19.7
2011-08-26 07:14:36 51°29.621 3°7.049 351.6 1 251 19.9
2011-08-26 07:15:36 51°29.612 3°7.022 349.7 1.4 234 19.9
2011-08-26 07:16:36 51°29.597 3°6.996 345.1 1.5 219 19.8
2011-08-26 07:17:36 51°29.58 3°6.971 335.7 1.6 212 19.8
2011-08-26 07:18:36 51°29.56 3°6.951 324.2 1.3 240 19.7
2011-08-26 07:19:36 51°29.546 3°6.926 316.5 1.2 228 19.6
2011-08-26 07:20:36 51°29.535 3°6.898 315.4 1.2 226 20
2011-08-26 07:21:36 51°29.523 3°6.873 314.7 1.2 237 19.7
2011-08-26 07:22:36 51°29.516 3°6.843 317.2 1.2 257 19.8
2011-08-26 07:23:36 51°29.513 3°6.812 323.1 1.2 265 19.8
2011-08-26 07:24:36 51°29.501 3°6.792 320.4 1.8 179 19.9
2011-08-26 07:25:39 51°29.47 3°6.801 315.8 1.2 255 -999
2011-08-26 07:26:38 51°29.497 3°6.783 21.1 2.4 23 20
2011-08-26 07:27:36 51°29.515 3°6.839 77.7 2.8 84 19.9
2011-08-26 07:28:36 51°29.517 3°6.907 79.6 2.2 86 20
2011-08-26 07:29:36 51°29.532 3°6.958 45.8 1.8 40 19.8
2011-08-26 07:30:36 51°29.536 3°6.951 35.6 0.6 329 19.9
2011-08-26 07:31:36 51°29.536 3°6.932 32.1 0.6 309 19.8
2011-08-26 07:32:36 51°29.535 3°6.911 29.7 0.7 276 20
2011-08-26 07:33:36 51°29.535 3°6.893 34.7 0.7 267 20.1
2011-08-26 07:34:36 51°29.533 3°6.873 39.2 0.8 261 19.9
2011-08-26 07:35:36 51°29.532 3°6.852 40.9 0.8 264 20.1
2011-08-26 07:36:36 51°29.53 3°6.829 39.7 0.9 255 20.2
2011-08-26 07:37:36 51°29.526 3°6.804 36.1 0.9 260 20.1
2011-08-26 07:38:36 51°29.524 3°6.777 33.1 1.1 262 20.3
2011-08-26 07:39:36 51°29.52 3°6.749 29.1 1.1 258 20.5
2011-08-26 07:40:36 51°29.517 3°6.721 25.9 1 258 20.5
2011-08-26 07:41:36 51°29.514 3°6.694 25.7 0.9 267 20.3
2011-08-26 07:42:36 51°29.515 3°6.673 27.5 0.8 277 20.5
2011-08-26 07:43:36 51°29.518 3°6.656 32.8 0.6 292 20.7
2011-08-26 07:44:36 51°29.523 3°6.644 40.4 0.4 306 20.8
2011-08-26 07:45:36 51°29.527 3°6.636 46.7 0.4 311 20.7
2011-08-26 07:46:36 51°29.531 3°6.629 50.8 0.3 318 20.8
2011-08-26 07:47:36 51°29.534 3°6.622 52.3 0.4 348 20.8
2011-08-26 07:48:36 51°29.541 3°6.679 91.2 2.8 98 20.7
2011-08-26 07:49:36 51°29.534 3°6.753 93.6 2.5 96 20.5
2011-08-26 07:50:36 51°29.528 3°6.802 96.2 1.4 103 20.3
2011-08-26 07:51:36 51°29.525 3°6.812 87.2 0.6 276 20.2
2011-08-26 07:52:36 51°29.525 3°6.795 56.3 0.7 267 20.2
2011-08-26 07:53:36 51°29.525 3°6.778 36.5 0.5 327 20.5
2011-08-26 07:54:36 51°29.562 3°6.758 330.9 3.8 314 20.6
2011-08-26 07:55:36 51°29.567 3°6.666 256.5 3 255 21
2011-08-26 07:56:36 51°29.543 3°6.602 227 3.2 223 21.1
2011-08-26 07:57:36 51°29.482 3°6.588 153.1 4.2 158 20.9
2011-08-26 07:58:36 51°29.459 3°6.681 80 4.1 82 20.4
2011-08-26 07:59:36 51°29.472 3°6.755 69.9 1.6 74 20.3
2011-08-26 08:00:36 51°29.477 3°6.767 74 0.2 5 20.4
2011-08-26 08:01:36 51°29.481 3°6.759 62.5 0.6 286 20.5
2011-08-26 08:02:36 51°29.485 3°6.741 40 0.8 288 20.4
2011-08-26 08:03:36 51°29.499 3°6.741 46.5 0.9 20 20.6
2011-08-26 08:04:36 51°29.507 3°6.734 46.6 0.7 276 20.8
2011-08-26 08:05:36 51°29.507 3°6.71 28.5 1 261 20.7
2011-08-26 08:06:36 51°29.505 3°6.685 18 0.9 267 20.5
2011-08-26 08:07:36 51°29.508 3°6.663 18.8 0.9 340 20.7
2011-08-26 08:08:36 51°29.524 3°6.669 50 1.2 31 20.9
2011-08-26 08:09:36 51°29.539 3°6.686 62.1 1 55 20.8
2011-08-26 08:10:36 51°29.548 3°6.699 69.3 0.6 32 21.1
2011-08-26 08:11:36 51°29.556 3°6.697 60.3 0.5 318 21.1
2011-08-26 08:12:36 51°29.564 3°6.684 43.5 1.2 6 21.2
2011-08-26 08:13:36 51°29.582 3°6.72 77.9 1.6 78 21.2
2011-08-26 08:14:36 51°29.588 3°6.751 85 0.8 55 21.3
2011-08-26 08:15:36 51°29.595 3°6.772 87.3 0.6 59 21.1
2011-08-26 08:16:36 51°29.603 3°6.78 80.5 0.5 356 21.1
2011-08-26 08:17:36 51°29.612 3°6.776 62.9 0.7 320 21.2
2011-08-26 08:18:36 51°29.621 3°6.76 38.4 0.8 307 21.5
2011-08-26 08:19:36 51°29.62 3°6.736 8.1 0.9 313 21.6
2011-08-26 08:20:36 51°29.654 3°6.682 297 3.9 289 22
2011-08-26 08:21:36 51°29.633 3°6.595 217.5 3.6 219 22.1
2011-08-26 08:22:36 51°29.584 3°6.574 168.9 2.8 175 21.9
2011-08-26 08:23:36 51°29.549 3°6.597 134.4 1.7 141 21.6
2011-08-26 08:24:36 51°29.542 3°6.618 98.9 0.6 52 21.5
2011-08-26 08:25:36 51°29.553 3°6.648 90.4 1.5 67 21.4
2011-08-26 08:26:36 51°29.562 3°6.68 95.9 1.1 65 21.6
2011-08-26 08:27:36 51°29.572 3°6.699 92.9 0.8 48 21.4
2011-08-26 08:28:36 51°29.584 3°6.715 84.7 1.1 43 21.5
2011-08-26 08:29:36 51°29.598 3°6.725 72.3 0.9 8 21.6
2011-08-26 08:30:36 51°29.611 3°6.726 56.9 0.9 11 21.4
2011-08-26 08:31:36 51°29.627 3°6.776 89.2 1.9 75 21.6
2011-08-26 08:32:36 51°29.634 3°6.821 97.3 1.3 63 21.5
2011-08-26 08:33:36 51°29.644 3°6.844 90.2 1.1 45 21.7
2011-08-26 08:34:36 51°29.657 3°6.855 77.1 0.8 16 21.6
2011-08-26 08:35:36 51°29.669 3°6.855 55.8 0.7 351 21.8
2011-08-26 08:36:36 51°29.679 3°6.849 41.1 0.7 341 21.9
2011-08-26 08:37:36 51°29.689 3°6.841 33.4 0.7 332 22.2
2011-08-26 08:38:36 51°29.699 3°6.835 32 0.6 348 22.1
2011-08-26 08:39:36 51°29.71 3°6.831 38.9 0.7 342 22.1
2011-08-26 08:40:36 51°29.72 3°6.825 44.2 0.7 330 22
2011-08-26 08:41:36 51°29.734 3°6.819 33.5 2.2 18 22.3
2011-08-26 08:42:36 51°29.792 3°6.791 304.8 4.3 302 22.7
2011-08-26 08:43:36 51°29.778 3°6.698 220 3.3 223 22.8
2011-08-26 08:44:36 51°29.735 3°6.678 171.8 2.3 173 22.7
2011-08-26 08:45:36 51°29.711 3°6.689 161.2 0.9 157 22.8
2011-08-26 08:46:36 51°29.705 3°6.694 160.1 -999 129 22.5
2011-08-26 08:47:36 51°29.706 3°6.69 170.6 0.4 190 22.6
2011-08-26 08:48:36 51°29.692 3°6.7 149.4 0.9 142 22.4
2011-08-26 08:49:36 51°29.688 3°6.719 136.8 0.7 91 22.5
2011-08-26 08:50:36 51°29.686 3°6.75 134.1 1.2 92 22.3
2011-08-26 08:51:36 51°29.679 3°6.788 143.7 1.1 102 22.1
2011-08-26 08:52:36 51°29.681 3°6.809 139.9 0.8 55 22.3
2011-08-26 08:53:36 51°29.694 3°6.825 120.4 1.3 76 22.1
2011-08-26 08:54:36 51°29.699 3°6.86 129.5 1.4 83 22
2011-08-26 08:55:36 51°29.703 3°6.887 138.7 0.9 62 21.9
2011-08-26 08:56:36 51°29.714 3°6.905 134.7 0.9 43 22.1
2011-08-26 08:57:36 51°29.721 3°6.928 140.2 1.1 64 22
2011-08-26 08:58:36 51°29.725 3°6.951 149.5 0.7 82 22
2011-08-26 08:59:36 51°29.733 3°6.961 168.2 0.9 11 21.9
2011-08-26 09:00:36 51°29.754 3°6.963 194.2 1.5 11 22.2
2011-08-26 09:01:36 51°29.772 3°6.966 217 0.6 285 22.6
2011-08-26 09:02:36 51°29.743 3°6.945 188.4 3.6 188 22.3
2011-08-26 09:03:36 51°29.691 3°6.941 185.9 2.1 180 22
2011-08-26 09:04:36 51°29.672 3°6.937 193.8 0.4 198 21.8
2011-08-26 09:05:36 51°29.673 3°6.933 204.9 0.5 350 21.9
2011-08-26 09:06:36 51°29.682 3°6.929 219.4 0.5 314 22.1
2011-08-26 09:07:36 51°29.676 3°6.919 199.4 0.4 217 21.7
2011-08-26 09:08:36 51°29.678 3°6.917 202.7 0.5 349 21.8
2011-08-26 09:09:36 51°29.684 3°6.91 211.3 0.5 248 22
2011-08-26 09:10:36 51°29.68 3°6.904 196.1 0.4 196 22
2011-08-26 09:11:36 51°29.676 3°6.907 183.3 0.4 36 22.1
2011-08-26 09:12:36 51°29.689 3°6.912 202.8 1.1 13 22.2
2011-08-26 09:13:36 51°29.698 3°6.906 211.9 0.6 236 22.3
2011-08-26 09:14:36 51°29.692 3°6.9 197.4 0.3 189 22.1
2011-08-26 09:15:36 51°29.688 3°6.903 188.8 0.3 130 22.3
2011-08-26 09:16:36 51°29.685 3°6.914 172.6 0.5 104 22.2
2011-08-26 09:17:36 51°29.69 3°6.927 165.2 0.7 36 22
2011-08-26 09:18:36 51°29.704 3°6.937 172.6 1.1 20 22.4
2011-08-26 09:19:36 51°29.723 3°6.949 187.3 1.4 21 22.2
2011-08-26 09:20:36 51°29.748 3°6.964 208.8 1.8 22 22.3
2011-08-26 09:21:36 51°29.773 3°6.986 238.3 1.7 33 22.3
2011-08-26 09:22:36 51°29.795 3°7.009 265 1.4 32 22.7
2011-08-26 09:23:36 51°29.814 3°7.029 278.1 1.4 27 22.6
2011-08-26 09:24:36 51°29.823 3°7.002 238.3 2.5 238 22.6
2011-08-26 09:25:36 51°29.772 3°6.989 179 4 169 22.5
2011-08-26 09:26:36 51°29.719 3°7.017 179.8 2.4 160 22
2011-08-26 09:27:36 51°29.695 3°7.036 185.2 1.3 144 22.2
2011-08-26 09:28:36 51°29.688 3°7.055 184.5 0.7 74 21.6
2011-08-26 09:29:36 51°29.699 3°7.071 191.1 1.2 32 22
2011-08-26 09:30:36 51°29.721 3°7.09 207 1.7 32 22.1
2011-08-26 09:31:36 51°29.745 3°7.113 230.2 1.3 24 21.9
2011-08-26 09:32:36 51°29.756 3°7.105 235.2 0.6 277 22.2
2011-08-26 09:33:36 51°29.754 3°7.095 218.2 0.1 203 22.1
2011-08-26 09:34:36 51°29.753 3°7.1 201.4 0.4 94 22.1
2011-08-26 09:35:36 51°29.753 3°7.116 186.4 0.9 86 22.2
2011-08-26 09:36:36 51°29.752 3°7.137 188.6 0.7 107 22.1
2011-08-26 09:37:36 51°29.749 3°7.155 192.3 0.6 101 22.2
2011-08-26 09:38:36 51°29.746 3°7.172 195.1 0.7 98 21.8
2011-08-26 09:39:36 51°29.745 3°7.187 195.3 0.5 85 21.9
2011-08-26 09:40:36 51°29.749 3°7.204 192.8 0.8 67 21.9
2011-08-26 09:41:36 51°29.755 3°7.226 186.9 1 57 21.6
2011-08-26 09:42:36 51°29.766 3°7.247 186 1.3 48 21.7
2011-08-26 09:43:36 51°29.783 3°7.274 171.9 1.4 43 21.5
2011-08-26 09:44:36 51°29.798 3°7.306 163.2 1.5 57 21.6
2011-08-26 09:45:36 51°29.802 3°7.348 167.8 1.7 95 21.8
2011-08-26 09:46:36 51°29.789 3°7.381 194.7 1.2 162 21.3
2011-08-26 09:47:36 51°29.782 3°7.38 231.1 0.2 333 21.4
2011-08-26 09:48:36 51°29.792 3°7.377 242.4 0.8 2 21.6
2011-08-26 09:49:36 51°29.806 3°7.377 247.4 0.8 314 21.8
2011-08-26 09:50:36 51°29.812 3°7.335 251 2.2 272 21.7
2011-08-26 09:51:36 51°29.811 3°7.273 248.6 2.1 270 21.9
2011-08-26 09:52:36 51°29.814 3°7.227 247.9 1.5 283 22.2
2011-08-26 09:53:36 51°29.817 3°7.196 232.1 1.1 239 22.1
2011-08-26 09:54:36 51°29.786 3°7.212 157.7 3 124 22
2011-08-26 09:55:36 51°29.782 3°7.307 102.6 3.8 82 21.7
2011-08-26 09:56:36 51°29.794 3°7.4 106.3 3.3 75 21.4
2011-08-26 09:57:36 51°29.806 3°7.482 113.2 3.4 84 21.4
2011-08-26 09:58:36 51°29.787 3°7.56 167.5 2.7 137 21.2
2011-08-26 09:59:36 51°29.746 3°7.548 215 4.6 211 21
2011-08-26 10:00:36 51°29.655 3°7.476 208.2 6.7 204 20.9
2011-08-26 10:01:36 51°29.56 3°7.376 214.6 6.9 215 20.2
2011-08-26 10:02:36 51°29.483 3°7.246 225.8 6.8 226 20.4
2011-08-26 10:03:36 51°29.425 3°7.122 225.8 4 222 20.3
2011-08-26 10:04:36 51°29.387 3°7.092 208.4 1.4 189 20.3
2011-08-26 10:05:36 51°29.39 3°7.107 208.5 1.1 44 20.3
2011-08-26 10:06:36 51°29.413 3°7.134 223.1 2.2 34 4.9
2011-08-26 10:07:36 51°29.433 3°7.158 235.2 0.5 13 20.4
2011-08-26 10:08:36 51°29.437 3°7.155 223.9 0.1 296 20.3
2011-08-26 10:09:36 51°29.438 3°7.155 217.7 0.1 148 20.5
2011-08-26 10:10:36 51°29.437 3°7.159 215.7 0.1 146 20.4
2011-08-26 10:11:36 51°29.436 3°7.16 217.3 0.2 335 20.4
2011-08-26 10:12:36 51°29.437 3°7.16 215.9 0.1 101 20.4
2011-08-26 10:13:36 51°29.436 3°7.162 216.7 0.1 293 20.3
2011-08-26 10:14:36 51°29.436 3°7.161 219.6 -999 155 20.5
2011-08-26 10:15:36 51°29.437 3°7.159 219 -999 189 20.3
2011-08-26 10:16:36 51°29.436 3°7.159 217.9 0.1 172 20.3
2011-08-26 10:17:36 51°29.437 3°7.158 219.3 0.1 301 20.3
2011-08-26 10:18:36 51°29.436 3°7.159 214.9 0.2 124 20.3
2011-08-26 10:19:36 51°29.435 3°7.162 214.9 0.1 152 20.4
2011-08-26 10:20:36 51°29.434 3°7.162 219.3 0.1 351 20.5
2011-08-26 10:21:36 51°29.435 3°7.16 221.5 0.3 289 20.3
2011-08-26 10:22:36 51°29.437 3°7.156 222.5 0.1 296 20.4
2011-08-26 10:23:36 51°29.438 3°7.154 219.6 0.2 285 20.4
2011-08-26 10:24:36 51°29.438 3°7.15 216.2 -999 295 20.1
2011-08-26 10:25:36 51°29.438 3°7.153 212 0.2 151 20.3
2011-08-26 10:26:36 51°29.437 3°7.157 211.2 0.1 79 20.4
2011-08-26 10:27:36 51°29.435 3°7.159 213 0.1 28 20.5
2011-08-26 10:28:36 51°29.436 3°7.157 217.8 0.1 248 20.5
2011-08-26 10:29:36 51°29.437 3°7.157 217.6 0.1 249 20.4
2011-08-26 10:30:36 51°29.439 3°7.155 217.1 0.2 346 20.3
2011-08-26 10:31:36 51°29.439 3°7.154 216.1 0.1 66 20.5
2011-08-26 10:32:36 51°29.437 3°7.157 209 0.2 146 20.4
2011-08-26 10:33:36 51°29.435 3°7.164 207.9 0.3 141 20.4
2011-08-26 10:34:36 51°29.433 3°7.167 213.4 0.1 45 20.3
2011-08-26 10:35:36 51°29.435 3°7.164 220.5 0.1 310 20.3
2011-08-26 10:36:36 51°29.438 3°7.159 221 0.4 325 20.2
2011-08-26 10:37:36 51°29.439 3°7.156 216.4 0.1 325 20.2
2011-08-26 10:38:36 51°29.44 3°7.153 216.2 -999 236 20.4
2011-08-26 10:39:36 51°29.438 3°7.156 212 0.1 140 20.3
2011-08-26 10:40:36 51°29.437 3°7.159 210.5 0.2 127 20.3
2011-08-26 10:41:36 51°29.436 3°7.159 215 -999 325 20.2
2011-08-26 10:42:36 51°29.436 3°7.161 211.2 -999 144 20.3
2011-08-26 10:43:36 51°29.435 3°7.163 210.7 0.1 53 20.3
2011-08-26 10:44:36 51°29.434 3°7.163 213.5 0.1 146 20.4
2011-08-26 10:45:36 51°29.434 3°7.164 215.1 0.1 233 20.2
2011-08-26 10:46:36 51°29.435 3°7.162 217.1 0.2 337 20.3
2011-08-26 10:47:36 51°29.436 3°7.158 220.7 0.1 299 20.5
2011-08-26 10:48:36 51°29.438 3°7.156 216.5 0.1 175 20.4
2011-08-26 10:49:36 51°29.438 3°7.158 214.6 -999 70 20.3
2011-08-26 10:50:36 51°29.438 3°7.157 218.1 0.1 352 20.3
2011-08-26 10:51:36 51°29.438 3°7.154 216.7 0.1 21 20.4
2011-08-26 10:52:36 51°29.438 3°7.155 211.4 0.2 139 20.2
2011-08-26 10:53:36 51°29.436 3°7.159 210.4 0.2 170 20.4
2011-08-26 10:54:36 51°29.433 3°7.164 208.9 0.2 138 20.2
2011-08-26 10:55:36 51°29.433 3°7.166 213.5 0.1 31 20.3
2011-08-26 10:56:36 51°29.433 3°7.166 216.3 -999 102 20.4
2011-08-26 10:57:36 51°29.432 3°7.166 214.7 0.1 66 20.5
2011-08-26 10:58:36 51°29.433 3°7.163 221.3 0.2 327 20.2
2011-08-26 10:59:36 51°29.435 3°7.16 219.1 0.1 271 20.3
2011-08-26 11:00:36 51°29.435 3°7.161 214.7 0.2 213 20.5
2011-08-26 11:01:36 51°29.435 3°7.162 212.7 0.2 109 20.3
2011-08-26 11:02:36 51°29.433 3°7.166 210.6 0.2 136 20.3
2011-08-26 11:03:36 51°29.432 3°7.167 213.9 -999 193 20.2
2011-08-26 11:04:36 51°29.432 3°7.166 219.6 0.1 358 20.4
2011-08-26 11:05:36 51°29.433 3°7.164 219.2 0.1 273 20.2
2011-08-26 11:06:36 51°29.436 3°7.161 222 0.3 318 20.4
2011-08-26 11:07:36 51°29.436 3°7.158 216.9 0.1 67 20.3
2011-08-26 11:08:36 51°29.435 3°7.161 212 0.2 125 20.3
2011-08-26 11:09:36 51°29.429 3°7.159 212.7 0.5 198 20.3
2011-08-26 11:10:36 51°29.424 3°7.154 214.9 0.5 218 20.3
2011-08-26 11:11:36 51°29.419 3°7.147 216.3 0.4 228 20.3
2011-08-26 11:12:36 51°29.415 3°7.137 219.3 0.6 250 20.3
2011-08-26 11:13:36 51°29.41 3°7.124 217 0.6 212 20.1
2011-08-26 11:14:36 51°29.413 3°7.128 215.2 0.9 29 20.2
2011-08-26 11:15:36 51°29.437 3°7.145 237 1.6 20 20.3
2011-08-26 11:16:36 51°29.46 3°7.114 260.7 3.7 281 20.5
2011-08-26 11:17:36 51°29.462 3°6.936 262.2 7.9 270 20.9
2011-08-26 11:18:36 51°29.515 3°6.728 306 9.6 324 21.9
2011-08-26 11:19:36 51°29.649 3°6.738 29.9 6.8 37 22.5
2011-08-26 11:20:36 51°29.697 3°6.855 87.9 4.2 65 22.4
2011-08-26 11:21:36 51°29.718 3°6.939 106.8 2.7 68 22.3
2011-08-26 11:22:36 51°29.739 3°7.001 118 2.5 60 22.1
2011-08-26 11:23:36 51°29.762 3°7.053 123.8 2.4 48 22.2
2011-08-26 11:24:36 51°29.774 3°7.117 143.6 3.1 108 22.2
2011-08-26 11:25:36 51°29.731 3°7.128 217.7 3.9 215 21.8
2011-08-26 11:26:36 51°29.667 3°7.079 203.3 3.6 198 21.5
2011-08-26 11:27:36 51°29.627 3°7.052 215 1.3 206 21.4
2011-08-26 11:28:37 51°29.621 3°7.046 215 0.2 28 21.2
2011-08-26 11:29:37 51°29.619 3°7.058 201.9 0.9 139 21.5
2011-08-26 11:30:36 51°29.601 3°7.065 202.9 1.4 178 21.2
2011-08-26 11:31:36 51°29.584 3°7.078 188.8 1.2 104 20.8
2011-08-26 11:32:36 51°29.592 3°7.12 164.8 2.1 59 21.2
2011-08-26 11:33:36 51°29.619 3°7.166 133.9 2.3 42 21.1
2011-08-26 11:34:36 51°29.649 3°7.207 113.6 2.3 37 20.9
2011-08-26 11:35:37 51°29.679 3°7.258 105.8 2.9 65 21
2011-08-26 11:36:36 51°29.693 3°7.334 119.8 2.8 72 21.2
2011-08-26 11:37:36 51°29.708 3°7.394 131.1 2.2 65 21.1
2011-08-26 11:38:36 51°29.729 3°7.443 132.4 2.3 51 21.1
2011-08-26 11:39:36 51°29.754 3°7.489 129.1 2.3 45 20.6
2011-08-26 11:40:36 51°29.781 3°7.535 125 2.4 48 21.2
2011-08-26 11:41:36 51°29.807 3°7.583 125.8 2.4 47 21.1
2011-08-26 11:42:36 51°29.834 3°7.626 124.8 2.2 44 21
2011-08-26 11:43:36 51°29.834 3°7.691 160.7 2.6 125 21.1
2011-08-26 11:44:36 51°29.794 3°7.697 215.7 4.3 218 20.6
2011-08-26 11:45:36 51°29.691 3°7.559 219.9 10.1 222 20.5
2011-08-26 11:46:37 51°29.557 3°7.363 222.3 10.8 226 20.1
2011-08-26 11:47:36 51°29.429 3°7.167 220.7 10.9 222 20
2011-08-26 11:48:36 51°29.295 3°6.976 217.4 10.8 219 19.7
2011-08-26 11:49:36 51°29.156 3°6.794 219.2 10.8 219 19.5
2011-08-26 11:50:36 51°29.016 3°6.61 216.4 10.9 220 19.3
2011-08-26 11:51:36 51°28.876 3°6.425 217.8 10.9 218 18.9
2011-08-26 11:52:36 51°28.737 3°6.239 219.4 10.9 221 18.6
2011-08-26 11:53:36 51°28.596 3°6.054 217.6 10.9 219 18.3
2011-08-26 11:54:36 51°28.459 3°5.861 218.9 10.9 221 17.4
2011-08-26 11:55:36 51°28.316 3°5.684 217.2 10.9 219 17.5
2011-08-26 11:56:37 51°28.177 3°5.492 217.8 10.9 219 17.4
2011-08-26 11:57:36 51°28.035 3°5.319 214.9 10.9 217 16.7
2011-08-26 11:58:36 51°27.893 3°5.136 218.6 11 222 16
2011-08-26 11:59:36 51°27.756 3°4.945 217.8 10.9 220 16
2011-08-26 12:00:36 51°27.609 3°4.77 213.5 11.1 215 15.4
2011-08-26 12:01:36 51°27.466 3°4.589 218.9 11 219 14.6
2011-08-26 12:02:36 51°27.32 3°4.41 214.1 11.2 215 14.5
2011-08-26 12:03:36 51°27.173 3°4.228 219 11 221 14.3
2011-08-26 12:04:36 51°27.033 3°4.045 218.1 10.9 218 13.8
2011-08-26 12:05:36 51°26.886 3°3.873 215.3 11.1 217 13.3
2011-08-26 12:06:36 51°26.741 3°3.695 217.5 10.9 218 13.5
2011-08-26 12:07:37 51°26.598 3°3.51 215.9 10.8 217 13.2
2011-08-26 12:08:36 51°26.454 3°3.341 214.4 10.9 217 13.1
2011-08-26 12:09:36 51°26.316 3°3.157 218.3 10.8 220 13.5
2011-08-26 12:10:36 51°26.174 3°2.975 214.7 10.8 215 13
2011-08-26 12:11:36 51°26.033 3°2.793 218.9 10.9 221 13
2011-08-26 12:12:37 51°25.885 3°2.621 215.1 10.7 218 12
2011-08-26 12:13:36 51°25.744 3°2.451 215.7 10.8 218 12.6
2011-08-26 12:14:36 51°25.605 3°2.274 216.3 10.8 217 13
2011-08-26 12:15:36 51°25.459 3°2.103 217.6 10.9 219 13.8
2011-08-26 12:16:36 51°25.318 3°1.921 215.7 11 217 14.7
2011-08-26 12:17:36 51°25.17 3°1.746 216.1 11.1 219 15.5
2011-08-26 12:18:36 51°25.035 3°1.545 221.8 11 224 16.4
2011-08-26 12:19:36 51°24.906 3°1.339 222.5 10.9 224 18.1
2011-08-26 12:20:36 51°24.768 3°1.145 220.6 11.2 222 20.6
2011-08-26 12:21:36 51°24.632 3°0.941 219.3 11.2 221 20.7
2011-08-26 12:22:36 51°24.5 3°0.735 223.9 11.1 225 17.6
2011-08-26 12:23:37 51°24.359 3°0.539 218.3 11 220 17.7
2011-08-26 12:24:36 51°24.226 3°0.342 224.4 11 226 18.1
2011-08-26 12:25:36 51°24.092 3°0.141 219.9 11 222 18
2011-08-26 12:26:36 51°23.955 2°59.945 222 11 224 18.5
2011-08-26 12:27:36 51°23.824 2°59.741 222.2 11 223 18.9
2011-08-26 12:28:36 51°23.687 2°59.543 222.4 11.1 224 19.2
2011-08-26 12:29:36 51°23.549 2°59.342 220.5 11.1 222 19.7
2011-08-26 12:30:36 51°23.409 2°59.149 220.6 11.1 222 20
2011-08-26 12:31:36 51°23.273 2°58.948 222.9 11.2 224 20.3
2011-08-26 12:32:36 51°23.14 2°58.742 222 11.2 223 20.2
2011-08-26 12:33:36 51°23.001 2°58.545 218.9 11.2 218 19.8
2011-08-26 12:34:37 51°22.848 2°58.366 217.7 11.1 219 19.5
2011-08-26 12:35:36 51°22.711 2°58.175 218.6 11.1 220 19.4
2011-08-26 12:36:36 51°22.565 2°57.988 217.9 11.3 219 19.2
2011-08-26 12:37:36 51°22.421 2°57.795 220.5 11.3 221 19.1
2011-08-26 12:38:36 51°22.28 2°57.597 218.6 11.2 220 18.9
2011-08-26 12:39:36 51°22.133 2°57.412 217.5 11.3 219 18.6
2011-08-26 12:40:36 51°21.992 2°57.213 221.7 11.4 223 -999
2011-08-26 12:41:36 51°21.851 2°57.013 217.9 11.3 218 18
2011-08-26 12:42:36 51°21.703 2°56.827 218.1 11.4 221 17.8
2011-08-26 12:43:36 51°21.563 2°56.619 220.7 11.5 223 17.4
2011-08-26 12:44:36 51°21.415 2°56.427 218.5 11.5 219 17
2011-08-26 12:45:36 51°21.267 2°56.232 219 11.5 221 16.9
2011-08-26 12:46:37 51°21.123 2°56.023 220.7 11.4 221 16.5
2011-08-26 12:47:37 51°20.969 2°55.84 213.5 11.6 213 16.3
2011-08-26 12:48:36 51°20.818 2°55.66 218.6 11.5 220 15.8
2011-08-26 12:49:36 51°20.666 2°55.471 218.6 11.6 219 15.7
2011-08-26 12:50:36 51°20.51 2°55.29 214.1 11.6 216 15.4
2011-08-26 12:51:36 51°20.357 2°55.1 219.1 11.7 220 15.2
2011-08-26 12:52:36 51°20.203 2°54.912 213.9 11.7 213 15
2011-08-26 12:53:36 51°20.047 2°54.73 216.6 11.6 217 14.8
2011-08-26 12:54:36 51°19.895 2°54.537 217.9 11.6 218 14.8
2011-08-26 12:55:36 51°19.737 2°54.356 213.5 11.7 215 14.1
2011-08-26 12:56:36 51°19.585 2°54.163 219 11.7 218 13.9
2011-08-26 12:57:36 51°19.428 2°53.98 213 11.7 213 13.9
2011-08-26 12:58:36 51°19.268 2°53.801 215.7 11.8 217 13.7
2011-08-26 12:59:36 51°19.119 2°53.601 217.7 11.8 219 13.4
2011-08-26 13:00:36 51°18.959 2°53.42 213.7 11.7 215 13.2
2011-08-26 13:01:36 51°18.805 2°53.231 214.1 11.7 216 12.9
2011-08-26 13:02:36 51°18.65 2°53.04 215.4 11.7 216 12.7
2011-08-26 13:03:36 51°18.486 2°52.872 208.5 11.8 209 12.7
2011-08-26 13:04:36 51°18.312 2°52.722 207.6 11.9 208 12.5
2011-08-26 13:05:36 51°18.131 2°52.603 197.6 11.8 196 12.4
2011-08-26 13:06:36 51°17.942 2°52.518 191.3 11.8 190 11.7
2011-08-26 13:07:36 51°17.744 2°52.493 183.7 12 184 11.6
2011-08-26 13:08:36 51°17.545 2°52.464 185.3 12 185 11.7
2011-08-26 13:09:36 51°17.346 2°52.471 175 12 173 11.6
2011-08-26 13:10:36 51°17.151 2°52.55 160.6 12.1 159 11.1
2011-08-26 13:11:36 51°16.965 2°52.682 155.6 12.3 154 11.2
2011-08-26 13:12:36 51°16.779 2°52.811 159.4 12.2 160 10.9
2011-08-26 13:13:36 51°16.592 2°52.944 153.8 12.3 151 12.8
2011-08-26 13:14:36 51°16.41 2°53.091 155.6 12.4 154 13.1
2011-08-26 13:15:36 51°16.221 2°53.227 158.5 12.4 158 13.1
2011-08-26 13:16:36 51°16.034 2°53.359 154.6 12.4 155 12.8
2011-08-26 13:17:36 51°15.85 2°53.508 149.1 12.5 148 12.9
2011-08-26 13:18:36 51°15.682 2°53.704 144 12.4 144 12.7
2011-08-26 13:19:36 51°15.516 2°53.902 145.6 12.4 146 12.6
2011-08-26 13:20:36 51°15.353 2°54.094 144.2 11.8 144 12.7
2011-08-26 13:21:36 51°15.195 2°54.278 143.7 11.9 145 12.5
2011-08-26 13:22:36 51°15.033 2°54.471 143 12.1 143 12.6
2011-08-26 13:23:36 51°14.888 2°54.65 143.1 10.3 142 13
2011-08-26 13:24:36 51°14.738 2°54.826 142.9 11.2 142 12.6
2011-08-26 13:25:36 51°14.583 2°54.999 146.6 11.3 147 12.6
2011-08-26 13:26:35 51°14.425 2°55.152 147.3 11.2 147 12.1
2011-08-26 13:27:36 51°14.281 2°55.292 147 9 149 12.2
2011-08-26 13:28:36 51°14.156 2°55.401 153.2 8.4 153 -999
2011-08-26 13:29:40 51°14.027 2°55.494 155.4 7.4 156 12.3
2011-08-26 13:30:39 51°13.93 2°55.559 156.7 6 157 -999
2011-08-26 13:31:38 51°13.837 2°55.625 154.4 6.1 154 12.4
2011-08-26 13:32:39 51°13.756 2°55.713 139.1 5.7 139 12.5
2011-08-26 13:33:38 51°13.698 2°55.819 125.5 4.8 126 12
2011-08-26 13:34:37 51°13.662 2°55.912 117.8 3.7 118 11.5
2011-08-26 13:35:36 51°13.642 2°55.989 106.5 2.6 107 8.7